sensor_id;sensor_type;location;lat;lon;timestamp;temperature;humidity
10030;DHT22;5055;52.054;8.524;2024-03-29T00:02:20;7.70;97.00
10030;DHT22;5055;52.054;8.524;2024-03-29T00:04:46;7.70;97.00
10030;DHT22;5055;52.054;8.524;2024-03-29T00:07:12;7.70;97.00
10030;DHT22;5055;52.054;8.524;2024-03-29T00:09:39;7.60;97.00
10030;DHT22;5055;52.054;8.524;2024-03-29T00:12:07;7.60;97.00
10030;DHT22;5055;52.054;8.524;2024-03-29T00:14:34;7.60;97.00
10030;DHT22;5055;52.054;8.524;2024-03-29T00:17:00;7.60;97.00
10030;DHT22;5055;52.054;8.524;2024-03-29T00:19:26;7.70;97.00
10030;DHT22;5055;52.054;8.524;2024-03-29T00:21:53;7.70;97.00
10030;DHT22;5055;52.054;8.524;2024-03-29T00:24:19;7.70;97.00
10030;DHT22;5055;52.054;8.524;2024-03-29T00:26:45;7.70;97.00
10030;DHT22;5055;52.054;8.524;2024-03-29T00:29:13;7.80;97.00
10030;DHT22;5055;52.054;8.524;2024-03-29T00:31:40;7.90;97.00
10030;DHT22;5055;52.054;8.524;2024-03-29T00:34:06;7.80;97.00
10030;DHT22;5055;52.054;8.524;2024-03-29T00:36:55;7.80;97.00
10030;DHT22;5055;52.054;8.524;2024-03-29T00:39:21;7.80;97.00
10030;DHT22;5055;52.054;8.524;2024-03-29T00:41:47;7.90;97.00
10030;DHT22;5055;52.054;8.524;2024-03-29T00:44:15;7.80;97.00
10030;DHT22;5055;52.054;8.524;2024-03-29T00:46:41;7.80;97.00
10030;DHT22;5055;52.054;8.524;2024-03-29T00:49:07;7.80;97.00
10030;DHT22;5055;52.054;8.524;2024-03-29T00:51:34;7.80;97.00
10030;DHT22;5055;52.054;8.524;2024-03-29T00:54:00;7.80;97.00
10030;DHT22;5055;52.054;8.524;2024-03-29T00:56:26;7.80;97.00
10030;DHT22;5055;52.054;8.524;2024-03-29T00:58:52;7.80;97.00
10030;DHT22;5055;52.054;8.524;2024-03-29T01:01:20;7.80;97.00
10030;DHT22;5055;52.054;8.524;2024-03-29T01:03:46;7.80;97.00
10030;DHT22;5055;52.054;8.524;2024-03-29T01:06:12;7.80;97.00
10030;DHT22;5055;52.054;8.524;2024-03-29T01:08:39;7.80;97.00
10030;DHT22;5055;52.054;8.524;2024-03-29T01:11:05;7.80;97.00
10030;DHT22;5055;52.054;8.524;2024-03-29T01:13:31;7.80;97.00
10030;DHT22;5055;52.054;8.524;2024-03-29T01:15:57;7.80;97.00
10030;DHT22;5055;52.054;8.524;2024-03-29T01:18:25;7.70;97.00
10030;DHT22;5055;52.054;8.524;2024-03-29T01:20:51;7.70;97.00
10030;DHT22;5055;52.054;8.524;2024-03-29T01:23:17;7.70;97.00
10030;DHT22;5055;52.054;8.524;2024-03-29T01:25:43;7.70;97.00
10030;DHT22;5055;52.054;8.524;2024-03-29T01:28:10;7.70;97.00
10030;DHT22;5055;52.054;8.524;2024-03-29T01:30:36;7.70;97.00
10030;DHT22;5055;52.054;8.524;2024-03-29T01:33:03;7.60;97.00
10030;DHT22;5055;52.054;8.524;2024-03-29T01:35:30;7.60;97.00
10030;DHT22;5055;52.054;8.524;2024-03-29T01:37:57;7.70;97.00
10030;DHT22;5055;52.054;8.524;2024-03-29T01:40:23;7.80;97.00
10030;DHT22;5055;52.054;8.524;2024-03-29T01:42:53;7.80;97.00
10030;DHT22;5055;52.054;8.524;2024-03-29T01:45:20;7.80;97.00
10030;DHT22;5055;52.054;8.524;2024-03-29T01:47:48;7.80;97.00
10030;DHT22;5055;52.054;8.524;2024-03-29T01:50:15;7.90;97.00
10030;DHT22;5055;52.054;8.524;2024-03-29T01:52:45;8.00;97.00
10030;DHT22;5055;52.054;8.524;2024-03-29T01:55:12;8.00;97.00
10030;DHT22;5055;52.054;8.524;2024-03-29T01:57:40;8.10;97.00
10030;DHT22;5055;52.054;8.524;2024-03-29T02:00:08;8.10;97.00
10030;DHT22;5055;52.054;8.524;2024-03-29T02:02:37;8.10;97.00
10030;DHT22;5055;52.054;8.524;2024-03-29T02:05:05;8.20;97.00
10030;DHT22;5055;52.054;8.524;2024-03-29T02:07:32;8.20;97.00
10030;DHT22;5055;52.054;8.524;2024-03-29T02:10:01;8.10;97.00
10030;DHT22;5055;52.054;8.524;2024-03-29T02:12:29;8.20;97.00
10030;DHT22;5055;52.054;8.524;2024-03-29T02:14:56;8.20;97.00
10030;DHT22;5055;52.054;8.524;2024-03-29T02:17:24;8.20;97.00
10030;DHT22;5055;52.054;8.524;2024-03-29T02:19:51;8.20;97.00
10030;DHT22;5055;52.054;8.524;2024-03-29T02:22:20;8.20;97.00
10030;DHT22;5055;52.054;8.524;2024-03-29T02:24:51;8.20;97.00
10030;DHT22;5055;52.054;8.524;2024-03-29T02:27:18;8.30;97.00
10030;DHT22;5055;52.054;8.524;2024-03-29T02:29:45;8.30;97.00
10030;DHT22;5055;52.054;8.524;2024-03-29T02:32:13;8.40;97.00
10030;DHT22;5055;52.054;8.524;2024-03-29T02:34:40;8.50;97.00
10030;DHT22;5055;52.054;8.524;2024-03-29T02:37:07;8.60;97.00
10030;DHT22;5055;52.054;8.524;2024-03-29T02:39:34;8.70;97.00
10030;DHT22;5055;52.054;8.524;2024-03-29T02:42:03;8.70;97.00
10030;DHT22;5055;52.054;8.524;2024-03-29T02:44:31;8.70;97.00
10030;DHT22;5055;52.054;8.524;2024-03-29T02:46:58;8.80;97.00
10030;DHT22;5055;52.054;8.524;2024-03-29T02:49:25;8.70;97.00
10030;DHT22;5055;52.054;8.524;2024-03-29T02:51:52;8.80;97.00
10030;DHT22;5055;52.054;8.524;2024-03-29T02:54:20;8.70;97.00
10030;DHT22;5055;52.054;8.524;2024-03-29T02:56:46;8.80;97.00
10030;DHT22;5055;52.054;8.524;2024-03-29T02:59:16;8.80;97.00
10030;DHT22;5055;52.054;8.524;2024-03-29T03:01:42;8.90;97.00
10030;DHT22;5055;52.054;8.524;2024-03-29T03:04:10;8.90;97.00
10030;DHT22;5055;52.054;8.524;2024-03-29T03:06:37;8.90;97.00
10030;DHT22;5055;52.054;8.524;2024-03-29T03:09:04;8.90;97.00
10030;DHT22;5055;52.054;8.524;2024-03-29T03:11:49;8.90;97.00
10030;DHT22;5055;52.054;8.524;2024-03-29T03:14:17;8.90;97.00
10030;DHT22;5055;52.054;8.524;2024-03-29T03:16:46;8.90;97.00
10030;DHT22;5055;52.054;8.524;2024-03-29T03:19:13;9.00;97.00
10030;DHT22;5055;52.054;8.524;2024-03-29T03:21:39;9.00;97.00
10030;DHT22;5055;52.054;8.524;2024-03-29T03:24:07;9.00;97.00
10030;DHT22;5055;52.054;8.524;2024-03-29T03:26:33;9.00;97.00
10030;DHT22;5055;52.054;8.524;2024-03-29T03:29:01;8.90;97.00
10030;DHT22;5055;52.054;8.524;2024-03-29T03:31:31;8.90;97.00
10030;DHT22;5055;52.054;8.524;2024-03-29T03:33:58;8.80;97.00
10030;DHT22;5055;52.054;8.524;2024-03-29T03:36:25;8.80;97.00
10030;DHT22;5055;52.054;8.524;2024-03-29T03:38:52;8.80;97.00
10030;DHT22;5055;52.054;8.524;2024-03-29T03:41:19;8.80;97.00
10030;DHT22;5055;52.054;8.524;2024-03-29T03:43:47;8.80;97.00
10030;DHT22;5055;52.054;8.524;2024-03-29T03:46:14;8.80;97.00
10030;DHT22;5055;52.054;8.524;2024-03-29T03:48:43;8.80;97.00
10030;DHT22;5055;52.054;8.524;2024-03-29T03:51:09;8.80;97.00
10030;DHT22;5055;52.054;8.524;2024-03-29T03:53:37;8.80;97.00
10030;DHT22;5055;52.054;8.524;2024-03-29T03:56:04;8.80;97.00
10030;DHT22;5055;52.054;8.524;2024-03-29T03:58:31;8.80;97.00
10030;DHT22;5055;52.054;8.524;2024-03-29T04:01:05;8.80;97.00
10030;DHT22;5055;52.054;8.524;2024-03-29T04:03:33;8.80;97.00
10030;DHT22;5055;52.054;8.524;2024-03-29T04:06:10;8.80;97.00
10030;DHT22;5055;52.054;8.524;2024-03-29T04:08:40;8.80;97.00
10030;DHT22;5055;52.054;8.524;2024-03-29T04:11:08;8.80;97.00
10030;DHT22;5055;52.054;8.524;2024-03-29T04:13:35;8.80;97.00
10030;DHT22;5055;52.054;8.524;2024-03-29T04:16:06;9.00;97.00
10030;DHT22;5055;52.054;8.524;2024-03-29T04:18:32;9.10;97.00
10030;DHT22;5055;52.054;8.524;2024-03-29T04:21:02;9.10;97.00
10030;DHT22;5055;52.054;8.524;2024-03-29T04:23:31;9.10;97.00
10030;DHT22;5055;52.054;8.524;2024-03-29T04:25:59;9.10;97.00
10030;DHT22;5055;52.054;8.524;2024-03-29T04:28:26;9.20;97.00
10030;DHT22;5055;52.054;8.524;2024-03-29T04:30:54;9.20;97.00
10030;DHT22;5055;52.054;8.524;2024-03-29T04:33:21;9.10;97.00
10030;DHT22;5055;52.054;8.524;2024-03-29T04:35:55;9.00;97.00
10030;DHT22;5055;52.054;8.524;2024-03-29T04:38:22;8.90;97.00
10030;DHT22;5055;52.054;8.524;2024-03-29T04:40:51;8.80;97.00
10030;DHT22;5055;52.054;8.524;2024-03-29T04:43:21;8.70;97.00
10030;DHT22;5055;52.054;8.524;2024-03-29T04:45:48;8.60;97.00
10030;DHT22;5055;52.054;8.524;2024-03-29T04:48:15;8.50;97.00
10030;DHT22;5055;52.054;8.524;2024-03-29T04:50:43;8.40;97.00
10030;DHT22;5055;52.054;8.524;2024-03-29T04:53:09;8.30;97.00
10030;DHT22;5055;52.054;8.524;2024-03-29T04:55:36;8.20;97.00
10030;DHT22;5055;52.054;8.524;2024-03-29T04:58:06;8.20;97.00
10030;DHT22;5055;52.054;8.524;2024-03-29T05:00:33;8.10;97.00
10030;DHT22;5055;52.054;8.524;2024-03-29T05:03:00;8.00;97.00
10030;DHT22;5055;52.054;8.524;2024-03-29T05:05:27;8.00;97.00
10030;DHT22;5055;52.054;8.524;2024-03-29T05:07:54;7.90;97.00
10030;DHT22;5055;52.054;8.524;2024-03-29T05:10:21;7.90;97.00
10030;DHT22;5055;52.054;8.524;2024-03-29T05:12:49;7.80;97.00
10030;DHT22;5055;52.054;8.524;2024-03-29T05:15:18;7.80;97.00
10030;DHT22;5055;52.054;8.524;2024-03-29T05:17:45;7.80;97.00
10030;DHT22;5055;52.054;8.524;2024-03-29T05:20:12;7.80;97.00
10030;DHT22;5055;52.054;8.524;2024-03-29T05:22:39;7.70;97.00
10030;DHT22;5055;52.054;8.524;2024-03-29T05:25:06;7.70;97.00
10030;DHT22;5055;52.054;8.524;2024-03-29T05:27:34;7.70;97.00
10030;DHT22;5055;52.054;8.524;2024-03-29T05:30:01;7.70;97.00
10030;DHT22;5055;52.054;8.524;2024-03-29T05:32:30;7.60;97.00
10030;DHT22;5055;52.054;8.524;2024-03-29T05:34:58;7.60;97.00
10030;DHT22;5055;52.054;8.524;2024-03-29T05:37:25;7.60;97.00
10030;DHT22;5055;52.054;8.524;2024-03-29T05:39:52;7.60;97.00
10030;DHT22;5055;52.054;8.524;2024-03-29T05:42:25;7.50;97.00
10030;DHT22;5055;52.054;8.524;2024-03-29T05:44:53;7.50;97.00
10030;DHT22;5055;52.054;8.524;2024-03-29T05:47:20;7.50;97.00
10030;DHT22;5055;52.054;8.524;2024-03-29T05:49:49;7.50;97.00
10030;DHT22;5055;52.054;8.524;2024-03-29T05:52:17;7.40;97.00
10030;DHT22;5055;52.054;8.524;2024-03-29T05:54:45;7.40;97.00
10030;DHT22;5055;52.054;8.524;2024-03-29T05:57:12;7.40;97.00
10030;DHT22;5055;52.054;8.524;2024-03-29T05:59:40;7.40;97.00
10030;DHT22;5055;52.054;8.524;2024-03-29T06:02:07;7.40;97.00
10030;DHT22;5055;52.054;8.524;2024-03-29T06:04:34;7.40;97.00
10030;DHT22;5055;52.054;8.524;2024-03-29T06:07:05;7.40;97.00
10030;DHT22;5055;52.054;8.524;2024-03-29T06:09:34;7.40;97.00
10030;DHT22;5055;52.054;8.524;2024-03-29T06:12:01;7.40;97.00
10030;DHT22;5055;52.054;8.524;2024-03-29T06:14:31;7.40;97.00
10030;DHT22;5055;52.054;8.524;2024-03-29T06:17:15;7.40;97.00
10030;DHT22;5055;52.054;8.524;2024-03-29T06:19:52;7.40;97.00
10030;DHT22;5055;52.054;8.524;2024-03-29T06:22:24;7.40;97.00
10030;DHT22;5055;52.054;8.524;2024-03-29T06:24:51;7.40;97.00
10030;DHT22;5055;52.054;8.524;2024-03-29T06:27:19;7.40;97.00
10030;DHT22;5055;52.054;8.524;2024-03-29T06:29:48;7.40;97.00
10030;DHT22;5055;52.054;8.524;2024-03-29T06:32:16;7.40;97.00
10030;DHT22;5055;52.054;8.524;2024-03-29T06:34:44;7.40;97.00
10030;DHT22;5055;52.054;8.524;2024-03-29T06:37:11;7.40;97.00
10030;DHT22;5055;52.054;8.524;2024-03-29T06:39:40;7.40;97.00
10030;DHT22;5055;52.054;8.524;2024-03-29T06:42:09;7.40;97.00
10030;DHT22;5055;52.054;8.524;2024-03-29T06:44:36;7.40;97.00
10030;DHT22;5055;52.054;8.524;2024-03-29T06:47:03;7.40;97.00
10030;DHT22;5055;52.054;8.524;2024-03-29T06:49:31;7.40;97.00
10030;DHT22;5055;52.054;8.524;2024-03-29T06:51:59;7.40;97.00
10030;DHT22;5055;52.054;8.524;2024-03-29T06:54:27;7.50;97.00
10030;DHT22;5055;52.054;8.524;2024-03-29T06:56:56;7.50;97.00
10030;DHT22;5055;52.054;8.524;2024-03-29T06:59:23;7.50;97.00
10030;DHT22;5055;52.054;8.524;2024-03-29T07:01:51;7.50;97.00
10030;DHT22;5055;52.054;8.524;2024-03-29T07:04:19;7.50;97.00
10030;DHT22;5055;52.054;8.524;2024-03-29T07:06:47;7.50;97.00
10030;DHT22;5055;52.054;8.524;2024-03-29T07:09:17;7.50;97.00
10030;DHT22;5055;52.054;8.524;2024-03-29T07:11:45;7.50;97.00
10030;DHT22;5055;52.054;8.524;2024-03-29T07:14:15;7.50;97.00
10030;DHT22;5055;52.054;8.524;2024-03-29T07:16:42;7.60;97.00
10030;DHT22;5055;52.054;8.524;2024-03-29T07:19:08;7.70;97.00
10030;DHT22;5055;52.054;8.524;2024-03-29T07:21:38;7.70;97.00
10030;DHT22;5055;52.054;8.524;2024-03-29T07:24:06;7.80;97.00
10030;DHT22;5055;52.054;8.524;2024-03-29T07:26:33;7.80;97.00
10030;DHT22;5055;52.054;8.524;2024-03-29T07:29:00;7.90;97.00
10030;DHT22;5055;52.054;8.524;2024-03-29T07:31:29;7.90;97.00
10030;DHT22;5055;52.054;8.524;2024-03-29T07:33:56;8.00;97.00
10030;DHT22;5055;52.054;8.524;2024-03-29T07:36:23;8.00;97.00
10030;DHT22;5055;52.054;8.524;2024-03-29T07:38:53;8.00;97.00
10030;DHT22;5055;52.054;8.524;2024-03-29T07:41:20;8.00;97.00
10030;DHT22;5055;52.054;8.524;2024-03-29T07:43:52;8.10;97.00
10030;DHT22;5055;52.054;8.524;2024-03-29T07:46:22;8.10;97.00
10030;DHT22;5055;52.054;8.524;2024-03-29T07:48:51;8.20;97.00
10030;DHT22;5055;52.054;8.524;2024-03-29T07:51:18;8.30;97.00
10030;DHT22;5055;52.054;8.524;2024-03-29T07:53:45;8.40;97.00
10030;DHT22;5055;52.054;8.524;2024-03-29T07:56:12;8.60;97.00
10030;DHT22;5055;52.054;8.524;2024-03-29T07:58:40;8.70;97.00
10030;DHT22;5055;52.054;8.524;2024-03-29T08:01:08;8.80;97.00
10030;DHT22;5055;52.054;8.524;2024-03-29T08:03:35;8.90;97.00
10030;DHT22;5055;52.054;8.524;2024-03-29T08:06:04;8.90;97.00
10030;DHT22;5055;52.054;8.524;2024-03-29T08:08:31;8.90;97.00
10030;DHT22;5055;52.054;8.524;2024-03-29T08:10:59;8.90;97.00
10030;DHT22;5055;52.054;8.524;2024-03-29T08:13:27;9.00;97.00
10030;DHT22;5055;52.054;8.524;2024-03-29T08:15:58;8.90;97.00
10030;DHT22;5055;52.054;8.524;2024-03-29T08:18:26;9.00;97.00
10030;DHT22;5055;52.054;8.524;2024-03-29T08:20:54;8.90;97.00
10030;DHT22;5055;52.054;8.524;2024-03-29T08:23:23;9.00;97.00
10030;DHT22;5055;52.054;8.524;2024-03-29T08:25:50;9.00;97.00
10030;DHT22;5055;52.054;8.524;2024-03-29T08:28:18;9.00;97.00
10030;DHT22;5055;52.054;8.524;2024-03-29T08:30:45;9.00;97.00
10030;DHT22;5055;52.054;8.524;2024-03-29T08:33:12;9.00;97.00
10030;DHT22;5055;52.054;8.524;2024-03-29T08:35:40;9.00;97.00
10030;DHT22;5055;52.054;8.524;2024-03-29T08:38:09;8.90;97.00
10030;DHT22;5055;52.054;8.524;2024-03-29T08:40:37;9.00;97.00
10030;DHT22;5055;52.054;8.524;2024-03-29T08:43:07;9.00;97.00
10030;DHT22;5055;52.054;8.524;2024-03-29T08:45:35;9.00;97.00
10030;DHT22;5055;52.054;8.524;2024-03-29T08:48:06;9.00;97.00
10030;DHT22;5055;52.054;8.524;2024-03-29T08:50:34;9.10;97.00
10030;DHT22;5055;52.054;8.524;2024-03-29T08:53:02;9.10;97.00
10030;DHT22;5055;52.054;8.524;2024-03-29T08:55:29;9.10;97.00
10030;DHT22;5055;52.054;8.524;2024-03-29T08:57:58;9.10;97.00
10030;DHT22;5055;52.054;8.524;2024-03-29T09:00:26;9.10;97.00
10030;DHT22;5055;52.054;8.524;2024-03-29T09:02:54;9.20;97.00
10030;DHT22;5055;52.054;8.524;2024-03-29T09:05:22;9.30;97.00
10030;DHT22;5055;52.054;8.524;2024-03-29T09:07:50;9.30;97.00
10030;DHT22;5055;52.054;8.524;2024-03-29T09:10:17;9.40;97.00
10030;DHT22;5055;52.054;8.524;2024-03-29T09:12:44;9.50;97.00
10030;DHT22;5055;52.054;8.524;2024-03-29T09:15:13;9.60;97.00
10030;DHT22;5055;52.054;8.524;2024-03-29T09:17:41;9.70;97.00
10030;DHT22;5055;52.054;8.524;2024-03-29T09:20:10;9.80;97.00
10030;DHT22;5055;52.054;8.524;2024-03-29T09:22:37;9.90;97.00
10030;DHT22;5055;52.054;8.524;2024-03-29T09:25:05;9.90;97.00
10030;DHT22;5055;52.054;8.524;2024-03-29T09:27:35;9.90;97.00
10030;DHT22;5055;52.054;8.524;2024-03-29T09:30:03;10.00;97.00
10030;DHT22;5055;52.054;8.524;2024-03-29T09:32:34;10.10;97.00
10030;DHT22;5055;52.054;8.524;2024-03-29T09:35:01;10.10;97.00
10030;DHT22;5055;52.054;8.524;2024-03-29T09:37:28;10.20;97.00
10030;DHT22;5055;52.054;8.524;2024-03-29T09:39:55;10.30;97.00
10030;DHT22;5055;52.054;8.524;2024-03-29T09:42:23;10.40;97.00
10030;DHT22;5055;52.054;8.524;2024-03-29T09:44:51;10.40;97.00
10030;DHT22;5055;52.054;8.524;2024-03-29T09:47:22;10.50;97.00
10030;DHT22;5055;52.054;8.524;2024-03-29T09:49:51;10.50;97.00
10030;DHT22;5055;52.054;8.524;2024-03-29T09:52:20;10.60;97.00
10030;DHT22;5055;52.054;8.524;2024-03-29T09:54:47;10.60;97.00
10030;DHT22;5055;52.054;8.524;2024-03-29T09:57:15;10.70;97.00
10030;DHT22;5055;52.054;8.524;2024-03-29T09:59:43;10.70;97.00
10030;DHT22;5055;52.054;8.524;2024-03-29T10:02:15;10.70;97.00
10030;DHT22;5055;52.054;8.524;2024-03-29T10:04:45;10.70;97.00
10030;DHT22;5055;52.054;8.524;2024-03-29T10:07:16;10.80;97.00
10030;DHT22;5055;52.054;8.524;2024-03-29T10:09:44;10.90;97.00
10030;DHT22;5055;52.054;8.524;2024-03-29T10:12:11;11.00;97.00
10030;DHT22;5055;52.054;8.524;2024-03-29T10:14:45;11.20;97.00
10030;DHT22;5055;52.054;8.524;2024-03-29T10:17:16;11.30;97.00
10030;DHT22;5055;52.054;8.524;2024-03-29T10:19:44;11.30;97.00
10030;DHT22;5055;52.054;8.524;2024-03-29T10:22:12;11.40;97.00
10030;DHT22;5055;52.054;8.524;2024-03-29T10:24:40;11.40;97.00
10030;DHT22;5055;52.054;8.524;2024-03-29T10:27:08;11.60;97.00
10030;DHT22;5055;52.054;8.524;2024-03-29T10:29:35;11.60;97.00
10030;DHT22;5055;52.054;8.524;2024-03-29T10:32:01;11.70;97.00
10030;DHT22;5055;52.054;8.524;2024-03-29T10:34:29;11.70;97.00
10030;DHT22;5055;52.054;8.524;2024-03-29T10:37:01;11.80;97.00
10030;DHT22;5055;52.054;8.524;2024-03-29T10:39:29;11.90;97.00
10030;DHT22;5055;52.054;8.524;2024-03-29T10:42:01;12.00;97.00
10030;DHT22;5055;52.054;8.524;2024-03-29T10:44:29;12.10;97.00
10030;DHT22;5055;52.054;8.524;2024-03-29T10:46:57;12.30;97.00
10030;DHT22;5055;52.054;8.524;2024-03-29T10:49:25;12.40;97.00
10030;DHT22;5055;52.054;8.524;2024-03-29T10:51:55;12.50;97.00
10030;DHT22;5055;52.054;8.524;2024-03-29T10:54:25;12.50;97.00
10030;DHT22;5055;52.054;8.524;2024-03-29T10:56:59;12.60;97.00
10030;DHT22;5055;52.054;8.524;2024-03-29T10:59:35;12.60;97.00
10030;DHT22;5055;52.054;8.524;2024-03-29T11:02:12;12.60;97.00
10030;DHT22;5055;52.054;8.524;2024-03-29T11:04:41;12.60;97.00
10030;DHT22;5055;52.054;8.524;2024-03-29T11:07:18;12.50;97.00
10030;DHT22;5055;52.054;8.524;2024-03-29T11:09:50;12.50;97.00
10030;DHT22;5055;52.054;8.524;2024-03-29T11:12:20;12.40;97.00
10030;DHT22;5055;52.054;8.524;2024-03-29T11:14:55;12.40;97.00
10030;DHT22;5055;52.054;8.524;2024-03-29T11:17:24;12.30;97.00
10030;DHT22;5055;52.054;8.524;2024-03-29T11:19:52;12.40;97.00
10030;DHT22;5055;52.054;8.524;2024-03-29T11:22:20;12.40;97.00
10030;DHT22;5055;52.054;8.524;2024-03-29T11:24:47;12.50;97.00
10030;DHT22;5055;52.054;8.524;2024-03-29T11:27:17;12.60;97.00
10030;DHT22;5055;52.054;8.524;2024-03-29T11:29:50;12.80;97.00
10030;DHT22;5055;52.054;8.524;2024-03-29T11:32:34;12.90;97.00
10030;DHT22;5055;52.054;8.524;2024-03-29T11:35:01;13.10;97.00
10030;DHT22;5055;52.054;8.524;2024-03-29T11:37:30;13.20;97.00
10030;DHT22;5055;52.054;8.524;2024-03-29T11:39:59;13.30;97.00
10030;DHT22;5055;52.054;8.524;2024-03-29T11:42:37;13.30;97.00
10030;DHT22;5055;52.054;8.524;2024-03-29T11:45:22;13.40;97.00
10030;DHT22;5055;52.054;8.524;2024-03-29T11:47:54;13.50;97.00
10030;DHT22;5055;52.054;8.524;2024-03-29T11:50:22;13.50;97.00
10030;DHT22;5055;52.054;8.524;2024-03-29T11:52:49;13.50;97.00
10030;DHT22;5055;52.054;8.524;2024-03-29T11:55:20;13.50;97.00
10030;DHT22;5055;52.054;8.524;2024-03-29T11:57:48;13.50;97.00
10030;DHT22;5055;52.054;8.524;2024-03-29T12:00:16;13.40;97.00
10030;DHT22;5055;52.054;8.524;2024-03-29T12:02:44;13.40;97.00
10030;DHT22;5055;52.054;8.524;2024-03-29T12:05:12;13.50;97.00
10030;DHT22;5055;52.054;8.524;2024-03-29T12:07:39;13.60;97.00
10030;DHT22;5055;52.054;8.524;2024-03-29T12:10:09;13.70;97.00
10030;DHT22;5055;52.054;8.524;2024-03-29T12:12:37;13.70;97.00
10030;DHT22;5055;52.054;8.524;2024-03-29T12:15:09;13.70;97.00
10030;DHT22;5055;52.054;8.524;2024-03-29T12:17:37;13.70;97.00
10030;DHT22;5055;52.054;8.524;2024-03-29T12:20:08;13.80;97.00
10030;DHT22;5055;52.054;8.524;2024-03-29T12:22:38;13.70;97.00
10030;DHT22;5055;52.054;8.524;2024-03-29T12:25:06;13.70;97.00
10030;DHT22;5055;52.054;8.524;2024-03-29T12:27:34;13.80;97.00
10030;DHT22;5055;52.054;8.524;2024-03-29T12:30:00;13.80;97.00
10030;DHT22;5055;52.054;8.524;2024-03-29T12:32:28;14.00;97.00
10030;DHT22;5055;52.054;8.524;2024-03-29T12:35:08;14.10;97.00
10030;DHT22;5055;52.054;8.524;2024-03-29T12:37:36;14.30;97.00
10030;DHT22;5055;52.054;8.524;2024-03-29T12:40:05;14.40;97.00
10030;DHT22;5055;52.054;8.524;2024-03-29T12:42:38;14.50;97.00
10030;DHT22;5055;52.054;8.524;2024-03-29T12:45:06;14.60;97.00
10030;DHT22;5055;52.054;8.524;2024-03-29T12:47:34;14.60;97.00
10030;DHT22;5055;52.054;8.524;2024-03-29T12:50:03;14.50;97.00
10030;DHT22;5055;52.054;8.524;2024-03-29T12:52:39;14.40;97.00
10030;DHT22;5055;52.054;8.524;2024-03-29T12:55:07;14.40;97.00
10030;DHT22;5055;52.054;8.524;2024-03-29T12:57:37;14.40;97.00
10030;DHT22;5055;52.054;8.524;2024-03-29T13:00:07;14.40;97.00
10030;DHT22;5055;52.054;8.524;2024-03-29T13:02:36;14.40;97.00
10030;DHT22;5055;52.054;8.524;2024-03-29T13:05:04;14.30;97.00
10030;DHT22;5055;52.054;8.524;2024-03-29T13:07:31;14.30;97.00
10030;DHT22;5055;52.054;8.524;2024-03-29T13:10:00;14.30;97.00
10030;DHT22;5055;52.054;8.524;2024-03-29T13:12:29;14.60;97.00
10030;DHT22;5055;52.054;8.524;2024-03-29T13:14:56;14.90;97.00
10030;DHT22;5055;52.054;8.524;2024-03-29T13:17:23;15.10;97.00
10030;DHT22;5055;52.054;8.524;2024-03-29T13:19:51;15.30;97.00
10030;DHT22;5055;52.054;8.524;2024-03-29T13:22:27;15.40;97.00
10030;DHT22;5055;52.054;8.524;2024-03-29T13:24:54;15.40;97.00
10030;DHT22;5055;52.054;8.524;2024-03-29T13:27:23;15.40;97.00
10030;DHT22;5055;52.054;8.524;2024-03-29T13:29:50;15.40;97.00
10030;DHT22;5055;52.054;8.524;2024-03-29T13:32:18;15.50;97.00
10030;DHT22;5055;52.054;8.524;2024-03-29T13:34:46;15.70;97.00
10030;DHT22;5055;52.054;8.524;2024-03-29T13:37:13;15.80;97.00
10030;DHT22;5055;52.054;8.524;2024-03-29T13:39:40;15.80;97.00
10030;DHT22;5055;52.054;8.524;2024-03-29T13:42:11;15.90;97.00
10030;DHT22;5055;52.054;8.524;2024-03-29T13:44:39;16.10;97.00
10030;DHT22;5055;52.054;8.524;2024-03-29T13:47:07;16.20;97.00
10030;DHT22;5055;52.054;8.524;2024-03-29T13:49:42;16.10;97.00
10030;DHT22;5055;52.054;8.524;2024-03-29T13:52:09;16.20;97.00
10030;DHT22;5055;52.054;8.524;2024-03-29T13:54:36;16.10;97.00
10030;DHT22;5055;52.054;8.524;2024-03-29T13:57:04;16.00;97.00
10030;DHT22;5055;52.054;8.524;2024-03-29T13:59:32;15.90;97.00
10030;DHT22;5055;52.054;8.524;2024-03-29T14:02:02;15.80;97.00
10030;DHT22;5055;52.054;8.524;2024-03-29T14:04:29;15.80;97.00
10030;DHT22;5055;52.054;8.524;2024-03-29T14:06:57;15.80;97.00
10030;DHT22;5055;52.054;8.524;2024-03-29T14:09:25;15.90;97.00
10030;DHT22;5055;52.054;8.524;2024-03-29T14:11:54;15.80;97.00
10030;DHT22;5055;52.054;8.524;2024-03-29T14:14:32;15.80;97.00
10030;DHT22;5055;52.054;8.524;2024-03-29T14:17:01;15.80;97.00
10030;DHT22;5055;52.054;8.524;2024-03-29T14:19:30;15.70;97.00
10030;DHT22;5055;52.054;8.524;2024-03-29T14:22:01;15.70;97.00
10030;DHT22;5055;52.054;8.524;2024-03-29T14:24:28;15.80;97.00
10030;DHT22;5055;52.054;8.524;2024-03-29T14:26:57;16.30;97.00
10030;DHT22;5055;52.054;8.524;2024-03-29T14:29:24;17.20;97.00
10030;DHT22;5055;52.054;8.524;2024-03-29T14:31:53;17.80;97.00
10030;DHT22;5055;52.054;8.524;2024-03-29T14:34:22;18.10;97.00
10030;DHT22;5055;52.054;8.524;2024-03-29T14:36:50;17.70;97.00
10030;DHT22;5055;52.054;8.524;2024-03-29T14:39:18;16.90;97.00
10030;DHT22;5055;52.054;8.524;2024-03-29T14:41:46;16.70;97.00
10030;DHT22;5055;52.054;8.524;2024-03-29T14:44:16;16.40;97.00
10030;DHT22;5055;52.054;8.524;2024-03-29T14:46:43;16.30;97.00
10030;DHT22;5055;52.054;8.524;2024-03-29T14:49:11;16.40;97.00
10030;DHT22;5055;52.054;8.524;2024-03-29T14:51:41;16.30;97.00
10030;DHT22;5055;52.054;8.524;2024-03-29T14:54:09;16.20;97.00
10030;DHT22;5055;52.054;8.524;2024-03-29T14:56:36;16.20;97.00
10030;DHT22;5055;52.054;8.524;2024-03-29T14:59:05;16.20;97.00
10030;DHT22;5055;52.054;8.524;2024-03-29T15:01:35;16.10;97.00
10030;DHT22;5055;52.054;8.524;2024-03-29T15:04:03;15.90;97.00
10030;DHT22;5055;52.054;8.524;2024-03-29T15:06:30;15.70;97.00
10030;DHT22;5055;52.054;8.524;2024-03-29T15:09:00;15.70;97.00
10030;DHT22;5055;52.054;8.524;2024-03-29T15:11:28;15.60;97.00
10030;DHT22;5055;52.054;8.524;2024-03-29T15:13:55;15.50;97.00
10030;DHT22;5055;52.054;8.524;2024-03-29T15:16:25;15.40;97.00
10030;DHT22;5055;52.054;8.524;2024-03-29T15:18:54;15.30;97.00
10030;DHT22;5055;52.054;8.524;2024-03-29T15:21:23;15.20;97.00
10030;DHT22;5055;52.054;8.524;2024-03-29T15:23:51;15.20;97.00
10030;DHT22;5055;52.054;8.524;2024-03-29T15:26:23;15.20;97.00
10030;DHT22;5055;52.054;8.524;2024-03-29T15:28:51;15.10;97.00
10030;DHT22;5055;52.054;8.524;2024-03-29T15:31:36;15.00;97.00
10030;DHT22;5055;52.054;8.524;2024-03-29T15:34:04;14.90;97.00
10030;DHT22;5055;52.054;8.524;2024-03-29T15:36:34;14.80;97.00
10030;DHT22;5055;52.054;8.524;2024-03-29T15:39:03;14.80;97.00
10030;DHT22;5055;52.054;8.524;2024-03-29T15:41:37;14.80;97.00
10030;DHT22;5055;52.054;8.524;2024-03-29T15:44:05;14.80;97.00
10030;DHT22;5055;52.054;8.524;2024-03-29T15:46:35;14.90;97.00
10030;DHT22;5055;52.054;8.524;2024-03-29T15:49:03;15.10;97.00
10030;DHT22;5055;52.054;8.524;2024-03-29T15:51:30;15.30;97.00
10030;DHT22;5055;52.054;8.524;2024-03-29T15:53:57;15.40;97.00
10030;DHT22;5055;52.054;8.524;2024-03-29T15:56:26;15.50;97.00
10030;DHT22;5055;52.054;8.524;2024-03-29T15:58:54;15.50;97.00
10030;DHT22;5055;52.054;8.524;2024-03-29T16:01:23;15.50;97.00
10030;DHT22;5055;52.054;8.524;2024-03-29T16:03:50;15.30;97.00